sensor_id;sensor_type;location;lat;lon;timestamp;P1;durP1;ratioP1;P2;durP2;ratioP2
54307;SDS011;40208;39.778;2.710;2023-10-31T00:01:56;4.93;;;1.10;;
54307;SDS011;40208;39.778;2.710;2023-10-31T00:04:41;4.93;;;1.17;;
54307;SDS011;40208;39.778;2.710;2023-10-31T00:07:26;2.63;;;1.00;;
54307;SDS011;40208;39.778;2.710;2023-10-31T00:10:11;3.53;;;1.02;;
54307;SDS011;40208;39.778;2.710;2023-10-31T00:12:56;5.93;;;1.02;;
54307;SDS011;40208;39.778;2.710;2023-10-31T00:15:41;4.65;;;0.95;;
54307;SDS011;40208;39.778;2.710;2023-10-31T00:18:25;5.93;;;1.67;;
54307;SDS011;40208;39.778;2.710;2023-10-31T00:21:10;7.03;;;1.67;;
54307;SDS011;40208;39.778;2.710;2023-10-31T00:23:55;8.82;;;2.03;;
54307;SDS011;40208;39.778;2.710;2023-10-31T00:26:40;4.53;;;1.52;;
54307;SDS011;40208;39.778;2.710;2023-10-31T00:29:24;7.30;;;1.83;;
54307;SDS011;40208;39.778;2.710;2023-10-31T00:32:09;7.63;;;1.77;;
54307;SDS011;40208;39.778;2.710;2023-10-31T00:34:54;7.85;;;1.67;;
54307;SDS011;40208;39.778;2.710;2023-10-31T00:37:39;5.78;;;1.70;;
54307;SDS011;40208;39.778;2.710;2023-10-31T00:40:24;7.90;;;2.22;;
54307;SDS011;40208;39.778;2.710;2023-10-31T00:43:08;6.75;;;1.70;;
54307;SDS011;40208;39.778;2.710;2023-10-31T00:45:53;7.13;;;2.53;;
54307;SDS011;40208;39.778;2.710;2023-10-31T00:48:38;6.93;;;2.08;;
54307;SDS011;40208;39.778;2.710;2023-10-31T00:51:23;7.93;;;2.92;;
54307;SDS011;40208;39.778;2.710;2023-10-31T00:54:07;9.65;;;2.30;;
54307;SDS011;40208;39.778;2.710;2023-10-31T00:56:52;11.35;;;2.40;;
54307;SDS011;40208;39.778;2.710;2023-10-31T00:59:37;5.78;;;2.42;;
54307;SDS011;40208;39.778;2.710;2023-10-31T01:02:23;8.05;;;2.35;;
54307;SDS011;40208;39.778;2.710;2023-10-31T01:05:08;5.88;;;2.15;;
54307;SDS011;40208;39.778;2.710;2023-10-31T01:07:53;11.10;;;2.25;;
54307;SDS011;40208;39.778;2.710;2023-10-31T01:10:37;9.38;;;2.50;;
54307;SDS011;40208;39.778;2.710;2023-10-31T01:13:22;8.30;;;2.95;;
54307;SDS011;40208;39.778;2.710;2023-10-31T01:16:07;7.95;;;2.53;;
54307;SDS011;40208;39.778;2.710;2023-10-31T01:18:52;6.68;;;2.28;;
54307;SDS011;40208;39.778;2.710;2023-10-31T01:21:37;9.10;;;3.13;;
54307;SDS011;40208;39.778;2.710;2023-10-31T01:24:21;9.05;;;3.33;;
54307;SDS011;40208;39.778;2.710;2023-10-31T01:27:07;7.63;;;3.38;;
54307;SDS011;40208;39.778;2.710;2023-10-31T01:29:52;6.95;;;2.72;;
54307;SDS011;40208;39.778;2.710;2023-10-31T01:32:37;6.97;;;2.80;;
54307;SDS011;40208;39.778;2.710;2023-10-31T01:35:21;6.57;;;2.50;;
54307;SDS011;40208;39.778;2.710;2023-10-31T01:38:06;5.22;;;2.17;;
54307;SDS011;40208;39.778;2.710;2023-10-31T01:40:51;10.05;;;2.88;;
54307;SDS011;40208;39.778;2.710;2023-10-31T01:43:36;6.80;;;1.95;;
54307;SDS011;40208;39.778;2.710;2023-10-31T01:46:22;4.07;;;1.65;;
54307;SDS011;40208;39.778;2.710;2023-10-31T01:49:06;5.60;;;2.20;;
54307;SDS011;40208;39.778;2.710;2023-10-31T01:51:52;6.35;;;2.75;;
54307;SDS011;40208;39.778;2.710;2023-10-31T01:54:36;9.13;;;3.05;;
54307;SDS011;40208;39.778;2.710;2023-10-31T01:57:21;13.07;;;3.78;;
54307;SDS011;40208;39.778;2.710;2023-10-31T02:00:07;6.70;;;2.92;;
54307;SDS011;40208;39.778;2.710;2023-10-31T02:02:52;8.48;;;3.05;;
54307;SDS011;40208;39.778;2.710;2023-10-31T02:05:38;10.15;;;3.45;;
54307;SDS011;40208;39.778;2.710;2023-10-31T02:08:24;11.55;;;2.80;;
54307;SDS011;40208;39.778;2.710;2023-10-31T02:11:09;11.18;;;2.85;;
54307;SDS011;40208;39.778;2.710;2023-10-31T02:13:54;4.60;;;1.95;;
54307;SDS011;40208;39.778;2.710;2023-10-31T02:16:39;4.72;;;1.92;;
54307;SDS011;40208;39.778;2.710;2023-10-31T02:19:24;9.05;;;2.55;;
54307;SDS011;40208;39.778;2.710;2023-10-31T02:22:09;5.60;;;2.00;;
54307;SDS011;40208;39.778;2.710;2023-10-31T02:24:54;7.43;;;2.90;;
54307;SDS011;40208;39.778;2.710;2023-10-31T02:27:38;5.15;;;1.75;;
54307;SDS011;40208;39.778;2.710;2023-10-31T02:30:23;8.10;;;2.53;;
54307;SDS011;40208;39.778;2.710;2023-10-31T02:33:09;6.82;;;2.28;;
54307;SDS011;40208;39.778;2.710;2023-10-31T02:35:53;4.15;;;1.75;;
54307;SDS011;40208;39.778;2.710;2023-10-31T02:38:39;7.07;;;2.53;;
54307;SDS011;40208;39.778;2.710;2023-10-31T02:41:24;7.30;;;2.25;;
54307;SDS011;40208;39.778;2.710;2023-10-31T02:44:09;6.20;;;1.70;;
54307;SDS011;40208;39.778;2.710;2023-10-31T02:46:54;5.95;;;1.77;;
54307;SDS011;40208;39.778;2.710;2023-10-31T02:49:39;4.07;;;1.80;;
54307;SDS011;40208;39.778;2.710;2023-10-31T02:52:24;3.92;;;1.50;;
54307;SDS011;40208;39.778;2.710;2023-10-31T02:55:09;5.15;;;1.33;;
54307;SDS011;40208;39.778;2.710;2023-10-31T02:57:54;4.05;;;1.25;;
54307;SDS011;40208;39.778;2.710;2023-10-31T03:00:38;5.43;;;1.83;;
54307;SDS011;40208;39.778;2.710;2023-10-31T03:03:23;3.65;;;1.15;;
54307;SDS011;40208;39.778;2.710;2023-10-31T03:06:07;2.83;;;1.10;;
54307;SDS011;40208;39.778;2.710;2023-10-31T03:08:52;6.25;;;0.95;;
54307;SDS011;40208;39.778;2.710;2023-10-31T03:11:37;4.55;;;1.65;;
54307;SDS011;40208;39.778;2.710;2023-10-31T03:14:22;6.03;;;1.17;;
54307;SDS011;40208;39.778;2.710;2023-10-31T03:17:07;6.40;;;1.13;;
54307;SDS011;40208;39.778;2.710;2023-10-31T03:19:52;4.68;;;0.90;;
54307;SDS011;40208;39.778;2.710;2023-10-31T03:22:37;6.97;;;1.25;;
54307;SDS011;40208;39.778;2.710;2023-10-31T03:25:21;4.10;;;1.30;;
54307;SDS011;40208;39.778;2.710;2023-10-31T03:28:09;2.13;;;1.00;;
54307;SDS011;40208;39.778;2.710;2023-10-31T03:31:03;7.28;;;1.38;;
54307;SDS011;40208;39.778;2.710;2023-10-31T03:33:48;4.47;;;0.90;;
54307;SDS011;40208;39.778;2.710;2023-10-31T03:36:33;4.90;;;0.90;;
54307;SDS011;40208;39.778;2.710;2023-10-31T03:39:18;3.17;;;0.93;;
54307;SDS011;40208;39.778;2.710;2023-10-31T03:42:03;1.80;;;0.90;;
54307;SDS011;40208;39.778;2.710;2023-10-31T03:44:49;4.28;;;0.80;;
54307;SDS011;40208;39.778;2.710;2023-10-31T03:47:34;1.95;;;0.75;;
54307;SDS011;40208;39.778;2.710;2023-10-31T03:50:19;4.05;;;1.30;;
54307;SDS011;40208;39.778;2.710;2023-10-31T03:53:04;3.92;;;0.95;;
54307;SDS011;40208;39.778;2.710;2023-10-31T03:55:48;6.90;;;1.05;;
54307;SDS011;40208;39.778;2.710;2023-10-31T03:58:33;5.18;;;0.95;;
54307;SDS011;40208;39.778;2.710;2023-10-31T04:01:18;3.15;;;0.88;;
54307;SDS011;40208;39.778;2.710;2023-10-31T04:04:03;3.03;;;0.90;;
54307;SDS011;40208;39.778;2.710;2023-10-31T04:06:48;2.55;;;0.57;;
54307;SDS011;40208;39.778;2.710;2023-10-31T04:09:33;1.70;;;0.70;;
54307;SDS011;40208;39.778;2.710;2023-10-31T04:12:17;2.67;;;0.80;;
54307;SDS011;40208;39.778;2.710;2023-10-31T04:15:02;2.47;;;0.70;;
54307;SDS011;40208;39.778;2.710;2023-10-31T04:17:48;3.50;;;0.82;;
54307;SDS011;40208;39.778;2.710;2023-10-31T04:20:33;2.97;;;0.40;;
54307;SDS011;40208;39.778;2.710;2023-10-31T04:23:17;2.95;;;1.20;;
54307;SDS011;40208;39.778;2.710;2023-10-31T04:26:02;4.50;;;1.00;;
54307;SDS011;40208;39.778;2.710;2023-10-31T04:28:47;4.13;;;0.93;;
54307;SDS011;40208;39.778;2.710;2023-10-31T04:31:32;3.90;;;1.10;;
54307;SDS011;40208;39.778;2.710;2023-10-31T04:34:17;4.35;;;1.10;;
54307;SDS011;40208;39.778;2.710;2023-10-31T04:37:02;5.15;;;1.20;;
54307;SDS011;40208;39.778;2.710;2023-10-31T04:39:47;10.27;;;1.13;;
54307;SDS011;40208;39.778;2.710;2023-10-31T04:42:32;8.00;;;1.10;;
54307;SDS011;40208;39.778;2.710;2023-10-31T04:45:19;8.77;;;1.27;;
54307;SDS011;40208;39.778;2.710;2023-10-31T04:48:04;3.80;;;0.88;;
54307;SDS011;40208;39.778;2.710;2023-10-31T04:50:49;8.25;;;1.00;;
54307;SDS011;40208;39.778;2.710;2023-10-31T04:53:34;3.72;;;0.95;;
54307;SDS011;40208;39.778;2.710;2023-10-31T04:56:19;2.85;;;0.77;;
54307;SDS011;40208;39.778;2.710;2023-10-31T04:59:04;6.13;;;1.10;;
54307;SDS011;40208;39.778;2.710;2023-10-31T05:01:50;2.75;;;0.80;;
54307;SDS011;40208;39.778;2.710;2023-10-31T05:04:38;3.60;;;0.80;;
54307;SDS011;40208;39.778;2.710;2023-10-31T05:07:24;2.60;;;0.93;;
54307;SDS011;40208;39.778;2.710;2023-10-31T05:10:09;3.90;;;0.80;;
54307;SDS011;40208;39.778;2.710;2023-10-31T05:12:54;5.63;;;1.05;;
54307;SDS011;40208;39.778;2.710;2023-10-31T05:15:39;7.20;;;1.15;;
54307;SDS011;40208;39.778;2.710;2023-10-31T05:18:24;4.53;;;1.05;;
54307;SDS011;40208;39.778;2.710;2023-10-31T05:21:09;4.07;;;1.08;;
54307;SDS011;40208;39.778;2.710;2023-10-31T05:23:54;3.38;;;0.80;;
54307;SDS011;40208;39.778;2.710;2023-10-31T05:26:42;2.58;;;0.60;;
54307;SDS011;40208;39.778;2.710;2023-10-31T05:29:27;4.78;;;0.90;;
54307;SDS011;40208;39.778;2.710;2023-10-31T05:32:12;2.15;;;0.68;;
54307;SDS011;40208;39.778;2.710;2023-10-31T05:34:57;6.88;;;1.25;;
54307;SDS011;40208;39.778;2.710;2023-10-31T05:37:42;4.80;;;0.90;;
54307;SDS011;40208;39.778;2.710;2023-10-31T05:40:27;4.95;;;1.27;;
54307;SDS011;40208;39.778;2.710;2023-10-31T05:43:13;11.80;;;1.00;;
54307;SDS011;40208;39.778;2.710;2023-10-31T05:45:58;4.47;;;1.10;;
54307;SDS011;40208;39.778;2.710;2023-10-31T05:48:44;5.55;;;0.90;;
54307;SDS011;40208;39.778;2.710;2023-10-31T05:51:29;5.55;;;1.02;;
54307;SDS011;40208;39.778;2.710;2023-10-31T05:54:14;5.60;;;0.85;;
54307;SDS011;40208;39.778;2.710;2023-10-31T05:56:59;10.57;;;0.95;;
54307;SDS011;40208;39.778;2.710;2023-10-31T05:59:44;7.43;;;1.05;;
54307;SDS011;40208;39.778;2.710;2023-10-31T06:02:28;4.97;;;0.88;;
54307;SDS011;40208;39.778;2.710;2023-10-31T06:05:14;4.97;;;1.15;;
54307;SDS011;40208;39.778;2.710;2023-10-31T06:07:59;7.32;;;1.38;;
54307;SDS011;40208;39.778;2.710;2023-10-31T06:10:44;3.35;;;1.00;;
54307;SDS011;40208;39.778;2.710;2023-10-31T06:13:29;6.90;;;1.17;;
54307;SDS011;40208;39.778;2.710;2023-10-31T06:16:15;2.53;;;0.75;;
54307;SDS011;40208;39.778;2.710;2023-10-31T06:19:00;1.77;;;0.70;;
54307;SDS011;40208;39.778;2.710;2023-10-31T06:21:46;0.98;;;0.60;;
54307;SDS011;40208;39.778;2.710;2023-10-31T06:24:31;4.43;;;0.90;;
54307;SDS011;40208;39.778;2.710;2023-10-31T06:27:15;6.75;;;1.30;;
54307;SDS011;40208;39.778;2.710;2023-10-31T06:30:00;6.35;;;1.00;;
54307;SDS011;40208;39.778;2.710;2023-10-31T06:32:45;7.18;;;1.15;;
54307;SDS011;40208;39.778;2.710;2023-10-31T06:35:30;4.75;;;1.65;;
54307;SDS011;40208;39.778;2.710;2023-10-31T06:38:14;9.10;;;1.10;;
54307;SDS011;40208;39.778;2.710;2023-10-31T06:40:59;5.82;;;1.00;;
54307;SDS011;40208;39.778;2.710;2023-10-31T06:43:44;4.00;;;1.00;;
54307;SDS011;40208;39.778;2.710;2023-10-31T06:46:29;7.03;;;1.58;;
54307;SDS011;40208;39.778;2.710;2023-10-31T06:49:14;4.32;;;1.50;;
54307;SDS011;40208;39.778;2.710;2023-10-31T06:51:59;5.55;;;1.10;;
54307;SDS011;40208;39.778;2.710;2023-10-31T06:54:43;2.20;;;0.90;;
54307;SDS011;40208;39.778;2.710;2023-10-31T06:57:28;9.68;;;1.70;;
54307;SDS011;40208;39.778;2.710;2023-10-31T07:00:13;9.75;;;1.48;;
54307;SDS011;40208;39.778;2.710;2023-10-31T07:02:58;11.60;;;1.20;;
54307;SDS011;40208;39.778;2.710;2023-10-31T07:05:43;32.53;;;15.73;;
54307;SDS011;40208;39.778;2.710;2023-10-31T07:08:29;14.75;;;7.35;;
54307;SDS011;40208;39.778;2.710;2023-10-31T07:11:14;29.02;;;13.20;;
54307;SDS011;40208;39.778;2.710;2023-10-31T07:14:02;29.00;;;11.95;;
54307;SDS011;40208;39.778;2.710;2023-10-31T07:16:47;22.00;;;9.98;;
54307;SDS011;40208;39.778;2.710;2023-10-31T07:19:33;17.52;;;8.50;;
54307;SDS011;40208;39.778;2.710;2023-10-31T07:22:17;15.63;;;5.60;;
54307;SDS011;40208;39.778;2.710;2023-10-31T07:25:02;14.52;;;4.10;;
54307;SDS011;40208;39.778;2.710;2023-10-31T07:27:47;6.15;;;3.17;;
54307;SDS011;40208;39.778;2.710;2023-10-31T07:30:32;6.68;;;2.72;;
54307;SDS011;40208;39.778;2.710;2023-10-31T07:33:18;9.27;;;2.85;;
54307;SDS011;40208;39.778;2.710;2023-10-31T07:36:03;8.48;;;3.10;;
54307;SDS011;40208;39.778;2.710;2023-10-31T07:38:48;9.57;;;2.83;;
54307;SDS011;40208;39.778;2.710;2023-10-31T07:41:33;13.32;;;2.92;;
54307;SDS011;40208;39.778;2.710;2023-10-31T07:44:18;30.85;;;9.00;;
54307;SDS011;40208;39.778;2.710;2023-10-31T07:47:03;17.45;;;6.20;;
54307;SDS011;40208;39.778;2.710;2023-10-31T07:49:49;29.17;;;10.52;;
54307;SDS011;40208;39.778;2.710;2023-10-31T07:52:33;29.48;;;10.40;;
54307;SDS011;40208;39.778;2.710;2023-10-31T07:55:18;16.00;;;6.07;;
54307;SDS011;40208;39.778;2.710;2023-10-31T07:58:03;19.45;;;8.18;;
54307;SDS011;40208;39.778;2.710;2023-10-31T08:00:48;196.38;;;20.40;;
54307;SDS011;40208;39.778;2.710;2023-10-31T08:03:33;33.72;;;9.10;;
54307;SDS011;40208;39.778;2.710;2023-10-31T08:06:18;28.50;;;8.20;;
54307;SDS011;40208;39.778;2.710;2023-10-31T08:09:02;23.83;;;6.93;;
54307;SDS011;40208;39.778;2.710;2023-10-31T08:11:47;19.67;;;6.25;;
54307;SDS011;40208;39.778;2.710;2023-10-31T08:14:32;31.00;;;11.85;;
54307;SDS011;40208;39.778;2.710;2023-10-31T08:17:18;20.63;;;10.00;;
54307;SDS011;40208;39.778;2.710;2023-10-31T08:20:03;19.25;;;7.35;;
54307;SDS011;40208;39.778;2.710;2023-10-31T08:22:48;17.00;;;8.23;;
54307;SDS011;40208;39.778;2.710;2023-10-31T08:25:33;18.83;;;7.82;;
54307;SDS011;40208;39.778;2.710;2023-10-31T08:28:18;24.48;;;9.48;;
54307;SDS011;40208;39.778;2.710;2023-10-31T08:31:03;16.05;;;8.07;;
54307;SDS011;40208;39.778;2.710;2023-10-31T08:33:49;21.55;;;8.68;;
54307;SDS011;40208;39.778;2.710;2023-10-31T08:36:33;28.15;;;13.23;;
54307;SDS011;40208;39.778;2.710;2023-10-31T08:39:18;21.77;;;10.43;;
54307;SDS011;40208;39.778;2.710;2023-10-31T08:42:03;19.80;;;10.98;;
54307;SDS011;40208;39.778;2.710;2023-10-31T08:44:48;21.17;;;10.43;;
54307;SDS011;40208;39.778;2.710;2023-10-31T08:47:33;25.55;;;10.52;;
54307;SDS011;40208;39.778;2.710;2023-10-31T08:50:18;18.35;;;10.52;;
54307;SDS011;40208;39.778;2.710;2023-10-31T08:53:03;24.33;;;11.90;;
54307;SDS011;40208;39.778;2.710;2023-10-31T08:55:48;19.40;;;10.80;;
54307;SDS011;40208;39.778;2.710;2023-10-31T08:58:32;23.83;;;10.60;;
54307;SDS011;40208;39.778;2.710;2023-10-31T09:01:17;20.80;;;10.23;;
54307;SDS011;40208;39.778;2.710;2023-10-31T09:04:02;16.33;;;8.45;;
54307;SDS011;40208;39.778;2.710;2023-10-31T09:06:47;13.90;;;7.05;;
54307;SDS011;40208;39.778;2.710;2023-10-31T09:09:31;13.48;;;7.03;;
54307;SDS011;40208;39.778;2.710;2023-10-31T09:12:16;14.88;;;6.50;;
54307;SDS011;40208;39.778;2.710;2023-10-31T09:15:01;14.02;;;5.65;;
54307;SDS011;40208;39.778;2.710;2023-10-31T09:17:46;10.95;;;5.03;;
54307;SDS011;40208;39.778;2.710;2023-10-31T09:20:31;11.02;;;6.10;;
54307;SDS011;40208;39.778;2.710;2023-10-31T09:23:16;11.38;;;5.18;;
54307;SDS011;40208;39.778;2.710;2023-10-31T09:26:01;10.13;;;5.43;;
54307;SDS011;40208;39.778;2.710;2023-10-31T09:28:46;11.25;;;4.75;;
54307;SDS011;40208;39.778;2.710;2023-10-31T09:31:34;12.98;;;4.65;;
54307;SDS011;40208;39.778;2.710;2023-10-31T09:34:19;7.45;;;3.88;;
54307;SDS011;40208;39.778;2.710;2023-10-31T09:37:03;12.35;;;3.30;;
54307;SDS011;40208;39.778;2.710;2023-10-31T09:39:48;10.55;;;2.90;;
54307;SDS011;40208;39.778;2.710;2023-10-31T09:42:33;8.60;;;2.95;;
54307;SDS011;40208;39.778;2.710;2023-10-31T09:45:18;6.47;;;2.78;;
54307;SDS011;40208;39.778;2.710;2023-10-31T09:48:03;10.82;;;3.58;;
54307;SDS011;40208;39.778;2.710;2023-10-31T09:50:48;9.40;;;3.33;;
54307;SDS011;40208;39.778;2.710;2023-10-31T09:53:33;6.40;;;2.55;;
54307;SDS011;40208;39.778;2.710;2023-10-31T09:56:21;14.27;;;3.28;;
54307;SDS011;40208;39.778;2.710;2023-10-31T09:59:06;12.85;;;4.72;;
54307;SDS011;40208;39.778;2.710;2023-10-31T10:01:51;22.63;;;10.55;;
54307;SDS011;40208;39.778;2.710;2023-10-31T10:04:36;38.85;;;17.77;;
54307;SDS011;40208;39.778;2.710;2023-10-31T10:07:22;31.73;;;14.20;;
54307;SDS011;40208;39.778;2.710;2023-10-31T10:10:09;25.33;;;11.48;;
54307;SDS011;40208;39.778;2.710;2023-10-31T10:12:55;25.58;;;10.77;;
54307;SDS011;40208;39.778;2.710;2023-10-31T10:15:43;25.40;;;9.57;;
54307;SDS011;40208;39.778;2.710;2023-10-31T10:18:36;19.17;;;7.03;;
54307;SDS011;40208;39.778;2.710;2023-10-31T10:21:24;15.57;;;6.35;;
54307;SDS011;40208;39.778;2.710;2023-10-31T10:24:09;19.55;;;5.78;;
54307;SDS011;40208;39.778;2.710;2023-10-31T10:26:53;11.32;;;4.78;;
54307;SDS011;40208;39.778;2.710;2023-10-31T10:29:38;12.68;;;4.70;;
54307;SDS011;40208;39.778;2.710;2023-10-31T10:32:23;8.48;;;2.90;;
54307;SDS011;40208;39.778;2.710;2023-10-31T10:35:08;8.98;;;2.65;;
54307;SDS011;40208;39.778;2.710;2023-10-31T10:37:54;9.25;;;2.10;;
54307;SDS011;40208;39.778;2.710;2023-10-31T10:40:41;11.30;;;3.08;;
54307;SDS011;40208;39.778;2.710;2023-10-31T10:43:30;11.45;;;4.45;;
54307;SDS011;40208;39.778;2.710;2023-10-31T10:46:21;6.00;;;3.13;;
54307;SDS011;40208;39.778;2.710;2023-10-31T10:49:09;10.02;;;4.00;;
54307;SDS011;40208;39.778;2.710;2023-10-31T10:51:58;9.40;;;3.30;;
54307;SDS011;40208;39.778;2.710;2023-10-31T10:54:52;12.10;;;3.90;;
54307;SDS011;40208;39.778;2.710;2023-10-31T11:00:40;14.90;;;3.72;;
54307;SDS011;40208;39.778;2.710;2023-10-31T11:03:26;6.25;;;2.63;;
54307;SDS011;40208;39.778;2.710;2023-10-31T11:06:12;8.75;;;3.17;;
54307;SDS011;40208;39.778;2.710;2023-10-31T11:08:58;8.77;;;2.65;;
54307;SDS011;40208;39.778;2.710;2023-10-31T11:11:44;8.90;;;2.85;;
54307;SDS011;40208;39.778;2.710;2023-10-31T11:14:33;7.30;;;2.88;;
54307;SDS011;40208;39.778;2.710;2023-10-31T11:17:33;9.60;;;2.83;;
54307;SDS011;40208;39.778;2.710;2023-10-31T11:23:04;8.55;;;2.63;;
54307;SDS011;40208;39.778;2.710;2023-10-31T11:25:50;6.45;;;2.28;;
54307;SDS011;40208;39.778;2.710;2023-10-31T11:28:39;8.35;;;2.80;;
54307;SDS011;40208;39.778;2.710;2023-10-31T11:31:23;11.30;;;2.33;;
54307;SDS011;40208;39.778;2.710;2023-10-31T11:34:08;12.50;;;2.42;;
54307;SDS011;40208;39.778;2.710;2023-10-31T11:36:53;9.88;;;2.38;;
54307;SDS011;40208;39.778;2.710;2023-10-31T11:42:57;7.43;;;2.78;;
54307;SDS011;40208;39.778;2.710;2023-10-31T11:45:46;8.70;;;3.17;;
54307;SDS011;40208;39.778;2.710;2023-10-31T11:48:45;11.30;;;2.42;;
54307;SDS011;40208;39.778;2.710;2023-10-31T11:51:32;12.93;;;6.78;;
54307;SDS011;40208;39.778;2.710;2023-10-31T11:54:17;12.75;;;5.80;;
54307;SDS011;40208;39.778;2.710;2023-10-31T11:57:02;10.57;;;4.30;;
54307;SDS011;40208;39.778;2.710;2023-10-31T11:59:47;10.45;;;3.60;;
54307;SDS011;40208;39.778;2.710;2023-10-31T12:02:32;8.15;;;2.50;;
54307;SDS011;40208;39.778;2.710;2023-10-31T12:05:16;7.32;;;3.03;;
54307;SDS011;40208;39.778;2.710;2023-10-31T12:08:01;10.25;;;2.78;;
54307;SDS011;40208;39.778;2.710;2023-10-31T12:10:46;5.88;;;2.60;;
54307;SDS011;40208;39.778;2.710;2023-10-31T12:13:31;8.40;;;2.25;;
54307;SDS011;40208;39.778;2.710;2023-10-31T12:16:16;7.43;;;2.72;;
54307;SDS011;40208;39.778;2.710;2023-10-31T12:19:01;8.00;;;3.88;;
54307;SDS011;40208;39.778;2.710;2023-10-31T12:21:50;9.40;;;3.58;;
54307;SDS011;40208;39.778;2.710;2023-10-31T12:24:34;9.63;;;4.32;;
54307;SDS011;40208;39.778;2.710;2023-10-31T12:27:19;9.23;;;4.07;;
54307;SDS011;40208;39.778;2.710;2023-10-31T12:30:04;10.95;;;3.47;;
54307;SDS011;40208;39.778;2.710;2023-10-31T12:32:53;10.60;;;3.15;;
54307;SDS011;40208;39.778;2.710;2023-10-31T12:35:40;12.15;;;4.38;;
54307;SDS011;40208;39.778;2.710;2023-10-31T12:38:25;12.00;;;4.80;;
54307;SDS011;40208;39.778;2.710;2023-10-31T12:41:10;11.65;;;4.32;;
54307;SDS011;40208;39.778;2.710;2023-10-31T12:43:55;15.20;;;6.53;;
54307;SDS011;40208;39.778;2.710;2023-10-31T12:46:40;12.77;;;5.45;;
54307;SDS011;40208;39.778;2.710;2023-10-31T12:49:25;21.90;;;8.27;;
54307;SDS011;40208;39.778;2.710;2023-10-31T12:52:12;14.60;;;5.68;;
54307;SDS011;40208;39.778;2.710;2023-10-31T12:54:56;15.95;;;5.70;;
54307;SDS011;40208;39.778;2.710;2023-10-31T12:57:41;15.73;;;6.05;;
54307;SDS011;40208;39.778;2.710;2023-10-31T13:00:31;9.95;;;4.40;;
54307;SDS011;40208;39.778;2.710;2023-10-31T13:03:18;8.35;;;3.70;;
54307;SDS011;40208;39.778;2.710;2023-10-31T13:06:13;9.07;;;3.42;;
54307;SDS011;40208;39.778;2.710;2023-10-31T13:08:59;9.50;;;3.70;;
54307;SDS011;40208;39.778;2.710;2023-10-31T13:11:46;11.45;;;3.35;;
54307;SDS011;40208;39.778;2.710;2023-10-31T13:14:32;8.25;;;2.72;;
54307;SDS011;40208;39.778;2.710;2023-10-31T13:17:17;8.23;;;3.17;;
54307;SDS011;40208;39.778;2.710;2023-10-31T13:20:04;7.68;;;2.90;;
54307;SDS011;40208;39.778;2.710;2023-10-31T13:22:50;9.32;;;2.03;;
54307;SDS011;40208;39.778;2.710;2023-10-31T13:25:36;6.88;;;2.50;;
54307;SDS011;40208;39.778;2.710;2023-10-31T13:28:20;7.25;;;2.25;;
54307;SDS011;40208;39.778;2.710;2023-10-31T13:31:05;8.35;;;2.17;;
54307;SDS011;40208;39.778;2.710;2023-10-31T13:33:51;10.63;;;3.15;;
54307;SDS011;40208;39.778;2.710;2023-10-31T13:36:35;8.05;;;2.20;;
54307;SDS011;40208;39.778;2.710;2023-10-31T13:39:21;8.65;;;1.98;;
54307;SDS011;40208;39.778;2.710;2023-10-31T13:42:05;7.32;;;2.08;;
54307;SDS011;40208;39.778;2.710;2023-10-31T13:44:50;7.13;;;2.42;;
54307;SDS011;40208;39.778;2.710;2023-10-31T13:47:35;6.60;;;2.40;;
54307;SDS011;40208;39.778;2.710;2023-10-31T13:50:22;6.97;;;1.70;;
54307;SDS011;40208;39.778;2.710;2023-10-31T13:53:07;12.65;;;2.00;;
54307;SDS011;40208;39.778;2.710;2023-10-31T13:55:52;7.03;;;1.90;;
54307;SDS011;40208;39.778;2.710;2023-10-31T13:58:36;4.80;;;1.38;;
54307;SDS011;40208;39.778;2.710;2023-10-31T14:01:21;5.03;;;1.23;;
54307;SDS011;40208;39.778;2.710;2023-10-31T14:04:09;8.25;;;1.80;;
54307;SDS011;40208;39.778;2.710;2023-10-31T14:06:54;5.95;;;1.73;;
54307;SDS011;40208;39.778;2.710;2023-10-31T14:09:38;6.55;;;1.48;;
54307;SDS011;40208;39.778;2.710;2023-10-31T14:12:23;4.13;;;1.48;;
54307;SDS011;40208;39.778;2.710;2023-10-31T14:15:09;6.60;;;1.80;;
54307;SDS011;40208;39.778;2.710;2023-10-31T14:17:54;5.95;;;1.75;;
54307;SDS011;40208;39.778;2.710;2023-10-31T14:20:38;5.95;;;1.88;;
54307;SDS011;40208;39.778;2.710;2023-10-31T14:23:24;3.97;;;1.55;;
54307;SDS011;40208;39.778;2.710;2023-10-31T14:26:09;6.72;;;1.40;;
54307;SDS011;40208;39.778;2.710;2023-10-31T14:28:57;7.13;;;1.52;;
54307;SDS011;40208;39.778;2.710;2023-10-31T14:31:42;3.63;;;1.45;;
54307;SDS011;40208;39.778;2.710;2023-10-31T14:34:27;5.63;;;1.58;;
54307;SDS011;40208;39.778;2.710;2023-10-31T14:37:11;5.68;;;1.38;;
54307;SDS011;40208;39.778;2.710;2023-10-31T14:39:56;7.15;;;1.63;;
54307;SDS011;40208;39.778;2.710;2023-10-31T14:42:41;7.75;;;1.83;;
54307;SDS011;40208;39.778;2.710;2023-10-31T14:45:26;7.32;;;1.30;;
54307;SDS011;40208;39.778;2.710;2023-10-31T14:48:10;4.78;;;1.38;;
54307;SDS011;40208;39.778;2.710;2023-10-31T14:50:55;5.93;;;1.60;;
54307;SDS011;40208;39.778;2.710;2023-10-31T14:53:41;5.03;;;1.60;;
54307;SDS011;40208;39.778;2.710;2023-10-31T14:56:26;7.57;;;1.52;;
54307;SDS011;40208;39.778;2.710;2023-10-31T14:59:13;4.07;;;1.50;;
54307;SDS011;40208;39.778;2.710;2023-10-31T15:01:58;11.63;;;1.40;;
54307;SDS011;40208;39.778;2.710;2023-10-31T15:04:43;21.98;;;1.38;;
54307;SDS011;40208;39.778;2.710;2023-10-31T15:07:28;6.50;;;1.35;;
54307;SDS011;40208;39.778;2.710;2023-10-31T15:10:13;4.93;;;1.08;;
54307;SDS011;40208;39.778;2.710;2023-10-31T15:12:57;5.55;;;1.50;;
54307;SDS011;40208;39.778;2.710;2023-10-31T15:15:42;6.28;;;1.00;;
54307;SDS011;40208;39.778;2.710;2023-10-31T15:18:27;7.20;;;1.00;;
54307;SDS011;40208;39.778;2.710;2023-10-31T15:21:12;15.40;;;1.30;;
54307;SDS011;40208;39.778;2.710;2023-10-31T15:23:57;8.00;;;1.30;;
54307;SDS011;40208;39.778;2.710;2023-10-31T15:26:42;7.25;;;1.08;;
54307;SDS011;40208;39.778;2.710;2023-10-31T15:29:27;5.15;;;1.10;;
54307;SDS011;40208;39.778;2.710;2023-10-31T15:32:12;5.88;;;1.20;;
54307;SDS011;40208;39.778;2.710;2023-10-31T15:34:57;5.38;;;1.77;;
54307;SDS011;40208;39.778;2.710;2023-10-31T15:37:42;6.60;;;1.13;;
54307;SDS011;40208;39.778;2.710;2023-10-31T15:40:27;6.30;;;1.08;;
54307;SDS011;40208;39.778;2.710;2023-10-31T15:43:13;6.90;;;1.48;;
54307;SDS011;40208;39.778;2.710;2023-10-31T15:45:57;5.45;;;1.35;;
54307;SDS011;40208;39.778;2.710;2023-10-31T15:48:42;16.23;;;3.10;;
54307;SDS011;40208;39.778;2.710;2023-10-31T15:51:27;111.93;;;46.47;;
54307;SDS011;40208;39.778;2.710;2023-10-31T15:54:12;125.93;;;60.95;;
54307;SDS011;40208;39.778;2.710;2023-10-31T15:56:56;163.27;;;73.65;;
54307;SDS011;40208;39.778;2.710;2023-10-31T15:59:41;131.32;;;59.08;;
54307;SDS011;40208;39.778;2.710;2023-10-31T16:02:26;82.43;;;40.17;;
54307;SDS011;40208;39.778;2.710;2023-10-31T16:05:11;64.25;;;32.17;;
54307;SDS011;40208;39.778;2.710;2023-10-31T16:07:56;50.45;;;24.05;;
54307;SDS011;40208;39.778;2.710;2023-10-31T16:10:40;52.30;;;26.27;;
54307;SDS011;40208;39.778;2.710;2023-10-31T16:13:25;61.17;;;30.33;;
54307;SDS011;40208;39.778;2.710;2023-10-31T16:16:11;45.65;;;23.80;;
54307;SDS011;40208;39.778;2.710;2023-10-31T16:18:55;34.40;;;17.23;;
54307;SDS011;40208;39.778;2.710;2023-10-31T16:21:40;34.50;;;16.15;;
54307;SDS011;40208;39.778;2.710;2023-10-31T16:24:25;27.38;;;13.32;;
54307;SDS011;40208;39.778;2.710;2023-10-31T16:27:10;24.92;;;12.35;;
54307;SDS011;40208;39.778;2.710;2023-10-31T16:29:55;26.73;;;12.48;;
54307;SDS011;40208;39.778;2.710;2023-10-31T16:32:40;24.05;;;10.20;;
54307;SDS011;40208;39.778;2.710;2023-10-31T16:35:25;15.45;;;9.02;;
54307;SDS011;40208;39.778;2.710;2023-10-31T16:38:09;21.92;;;11.73;;